G.m. Mcallister — WDH9744 — position and weather

sailwx.info

Track history (hours):
 
Tides and Currents Weather Stations Pressure Air Temp Water Temp Dewpoint Dewpoint Depression Visibility Wind Speed Wind Dir Waves Ship Positions

G.m. Mcallister

Owner: McAllister Towing & Transportation Company Inc., Staten Island, NY. More information available from US FCC via Universal Licensing System and Coast Guard Vessel Documentation Center.

Last reported at 2017-Oct-17 16:41 UTC. Time now 2017-Oct-19 16:13 UTC.
Position N 36°52' W 076°20'.

Length 29 m; draft 4.5 m.

Type: Tug. MMSI: 367661170.

Date/timePositionNaut miles runAvg speedWind from/ knotsBaromVisibWave heightAir tempDewpointWater temp
2017-Oct-17 16:41N 36°52' W 076°20'1 5.7
2017-Oct-17 16:26N 36°51' W 076°19'1 1.9
2017-Oct-17 15:44N 36°50' W 076°17'0 0.0
2017-Oct-17 13:45N 36°50' W 076°17'0 0.0
2017-Oct-17 13:20N 36°50' W 076°17'0 0.0
2017-Oct-17 12:57N 36°50' W 076°17'0 0.0
2017-Oct-17 12:29N 36°50' W 076°17'0 0.1
2017-Oct-17 11:58N 36°51' W 076°17'0 0.0
2017-Oct-17 10:33N 36°51' W 076°17'0 0.8
2017-Oct-17 10:30N 36°51' W 076°17'  
2017-Oct-15 02:53N 36°56' W 076°20'1 1.3
2017-Oct-15 02:30N 36°55' W 076°20'0 0.0
2017-Oct-14 16:20N 36°55' W 076°20'0 0.1
2017-Oct-14 16:00N 36°55' W 076°20'3 2.0
2017-Oct-14 14:33N 36°52' W 076°20'110.2
2017-Oct-14 14:30N 36°52' W 076°20'2 5.0
2017-Oct-14 14:00N 36°50' W 076°17'0 0.0
2017-Oct-14 13:30N 36°50' W 076°17'0 0.0
2017-Oct-14 13:00N 36°50' W 076°17'0 0.0
2017-Oct-14 12:29N 36°50' W 076°17'0 0.0
2017-Oct-14 11:43N 36°50' W 076°17'0 0.0
2017-Oct-14 11:28N 36°50' W 076°17'0 0.0
2017-Oct-14 11:00N 36°50' W 076°17'0 0.0
2017-Oct-14 10:29N 36°50' W 076°17'2 3.8
2017-Oct-14 09:59N 36°52' W 076°19'1 3.0
2017-Oct-14 09:29N 36°53' W 076°20'1 0.8
2017-Oct-14 08:25N 36°52' W 076°21'  
2017-Oct-10 11:36N 36°53' W 076°20'1 7.2
2017-Oct-10 11:30N 36°52' W 076°20'1 1.5
2017-Oct-10 10:53N 36°51' W 076°19'0 0.3
2017-Oct-10 09:43N 36°51' W 076°19'0 0.0
2017-Oct-10 09:26N 36°51' W 076°19'0 0.0
2017-Oct-10 08:58N 36°51' W 076°19'0 0.0
2017-Oct-10 06:36N 36°51' W 076°19'0 0.1
2017-Oct-10 06:30N 36°51' W 076°19'2 0.1
2017-Oct-09 06:16N 36°50' W 076°17'0 0.0
2017-Oct-09 04:33N 36°50' W 076°17'0 0.0
2017-Oct-09 04:15N 36°50' W 076°17'0 0.0
2017-Oct-09 03:55N 36°50' W 076°17'1 3.2
2017-Oct-09 03:30N 36°51' W 076°19'5 0.4
2017-Oct-08 15:05N 36°56' W 076°20'0 0.0
2017-Oct-08 14:59N 36°56' W 076°20'  
Track history (hours):
 
Tides and Currents Weather Stations Pressure Air Temp Water Temp Dewpoint Dewpoint Depression Visibility Wind Speed Wind Dir Waves Ship Positions

G.m. Mcallister

Owner: McAllister Towing & Transportation Company Inc., Staten Island, NY. More information available from US FCC via Universal Licensing System and Coast Guard Vessel Documentation Center.

Last reported at 2017-Oct-17 16:41 UTC. Time now 2017-Oct-19 16:13 UTC.
Position N 36°52' W 076°20'.

Length 29 m; draft 4.5 m.

Type: Tug. MMSI: 367661170.

Date/timePositionNaut miles runAvg speedWind from/ knotsBaromVisibWave heightAir tempDewpointWater temp
2017-Oct-17 16:41N 36°52' W 076°20'1 5.7
2017-Oct-17 16:26N 36°51' W 076°19'1 1.9
2017-Oct-17 15:44N 36°50' W 076°17'0 0.0
2017-Oct-17 13:45N 36°50' W 076°17'0 0.0
2017-Oct-17 13:20N 36°50' W 076°17'0 0.0
2017-Oct-17 12:57N 36°50' W 076°17'0 0.0
2017-Oct-17 12:29N 36°50' W 076°17'0 0.1
2017-Oct-17 11:58N 36°51' W 076°17'0 0.0
2017-Oct-17 10:33N 36°51' W 076°17'0 0.8
2017-Oct-17 10:30N 36°51' W 076°17'  
2017-Oct-15 02:53N 36°56' W 076°20'1 1.3
2017-Oct-15 02:30N 36°55' W 076°20'0 0.0
2017-Oct-14 16:20N 36°55' W 076°20'0 0.1
2017-Oct-14 16:00N 36°55' W 076°20'3 2.0
2017-Oct-14 14:33N 36°52' W 076°20'110.2
2017-Oct-14 14:30N 36°52' W 076°20'2 5.0
2017-Oct-14 14:00N 36°50' W 076°17'0 0.0
2017-Oct-14 13:30N 36°50' W 076°17'0 0.0
2017-Oct-14 13:00N 36°50' W 076°17'0 0.0
2017-Oct-14 12:29N 36°50' W 076°17'0 0.0
2017-Oct-14 11:43N 36°50' W 076°17'0 0.0
2017-Oct-14 11:28N 36°50' W 076°17'0 0.0
2017-Oct-14 11:00N 36°50' W 076°17'0 0.0
2017-Oct-14 10:29N 36°50' W 076°17'2 3.8
2017-Oct-14 09:59N 36°52' W 076°19'1 3.0
2017-Oct-14 09:29N 36°53' W 076°20'1 0.8
2017-Oct-14 08:25N 36°52' W 076°21'  
2017-Oct-10 11:36N 36°53' W 076°20'1 7.2
2017-Oct-10 11:30N 36°52' W 076°20'1 1.5
2017-Oct-10 10:53N 36°51' W 076°19'0 0.3
2017-Oct-10 09:43N 36°51' W 076°19'0 0.0
2017-Oct-10 09:26N 36°51' W 076°19'0 0.0
2017-Oct-10 08:58N 36°51' W 076°19'0 0.0
2017-Oct-10 06:36N 36°51' W 076°19'0 0.1
2017-Oct-10 06:30N 36°51' W 076°19'2 0.1
2017-Oct-09 06:16N 36°50' W 076°17'0 0.0
2017-Oct-09 04:33N 36°50' W 076°17'0 0.0
2017-Oct-09 04:15N 36°50' W 076°17'0 0.0
2017-Oct-09 03:55N 36°50' W 076°17'1 3.2
2017-Oct-09 03:30N 36°51' W 076°19'5 0.4
2017-Oct-08 15:05N 36°56' W 076°20'0 0.0
2017-Oct-08 14:59N 36°56' W 076°20'  

Dump ship's entire track history